Time;durP1;ratioP1;P1;durP2;ratioP2;P2;SDS_P1;SDS_P2;PMS_P1;PMS_P2;Temp;Humidity;BMP_temperature;BMP_pressure;BME280_temperature;BME280_humidity;BME280_pressure;Samples;Min_cycle;Max_cycle;Signal;HPM_P1;HPM_P2
2023/09/03 00:00:42;;;;;;;2.83;1.42;;;19.30;99.90;;;;;;5021794;28;20053;-78
2023/09/03 00:03:09;;;;;;;1.95;1.60;;;19.30;99.90;;;;;;5028237;28;20049;-79
2023/09/03 00:05:36;;;;;;;3.95;1.90;;;19.30;99.90;;;;;;5030038;28;20536;-78
2023/09/03 00:08:04;;;;;;;3.65;2.70;;;19.30;99.90;;;;;;5026331;28;20520;-78
2023/09/03 00:10:34;;;;;;;3.15;1.83;;;19.20;99.90;;;;;;5025288;28;20045;-78
2023/09/03 00:13:04;;;;;;;5.05;2.00;;;19.20;99.90;;;;;;5029659;28;20050;-78
2023/09/03 00:15:31;;;;;;;3.42;1.75;;;19.20;99.90;;;;;;5021922;28;20057;-79
2023/09/03 00:17:58;;;;;;;2.42;1.75;;;19.20;99.90;;;;;;5029219;28;20099;-79
2023/09/03 00:20:25;;;;;;;3.45;1.63;;;19.10;99.90;;;;;;5030391;28;20568;-78
2023/09/03 00:22:52;;;;;;;3.70;1.90;;;19.20;99.90;;;;;;5026467;28;20046;-78
2023/09/03 00:25:18;;;;;;;2.80;1.92;;;19.10;99.90;;;;;;5023586;28;20053;-78
2023/09/03 00:27:45;;;;;;;4.15;2.25;;;19.10;99.90;;;;;;5029621;28;20045;-78
2023/09/03 00:30:12;;;;;;;3.80;2.03;;;19.10;99.90;;;;;;5030301;28;20045;-79
2023/09/03 00:32:39;;;;;;;3.95;2.10;;;19.10;99.90;;;;;;5027360;28;20052;-78
2023/09/03 00:35:06;;;;;;;5.18;2.00;;;19.00;99.90;;;;;;5029884;28;20041;-78
2023/09/03 00:37:33;;;;;;;2.30;1.73;;;19.00;99.90;;;;;;5026840;28;20108;-78
2023/09/03 00:40:00;;;;;;;3.33;1.98;;;19.00;99.90;;;;;;5023240;28;20056;-78
2023/09/03 00:42:27;;;;;;;4.80;2.17;;;19.00;99.90;;;;;;5027697;28;20555;-79
2023/09/03 00:44:54;;;;;;;7.88;2.22;;;18.90;99.90;;;;;;5029589;28;20112;-77
2023/09/03 00:47:21;;;;;;;2.75;1.67;;;18.90;99.90;;;;;;5015823;28;20049;-79
2023/09/03 00:49:48;;;;;;;6.43;1.85;;;18.90;99.90;;;;;;5029261;28;20050;-79
2023/09/03 00:52:19;;;;;;;2.72;1.55;;;18.90;99.90;;;;;;5028178;28;20050;-79
2023/09/03 00:54:45;;;;;;;3.30;1.98;;;18.90;99.90;;;;;;5019941;28;20053;-78
2023/09/03 00:57:12;;;;;;;7.03;1.90;;;18.90;99.90;;;;;;5027203;28;20076;-79
2023/09/03 00:59:41;;;;;;;3.50;2.03;;;18.90;99.90;;;;;;5029904;28;20100;-79
2023/09/03 01:02:11;;;;;;;2.97;1.92;;;18.80;99.90;;;;;;5026617;28;20077;-78
2023/09/03 01:04:39;;;;;;;3.22;1.70;;;18.80;99.90;;;;;;5025525;28;20139;-79
2023/09/03 01:07:08;;;;;;;4.68;1.77;;;18.80;99.90;;;;;;5015191;28;20042;-78
2023/09/03 01:09:35;;;;;;;6.53;2.05;;;18.70;99.90;;;;;;5022109;28;20042;-79
2023/09/03 01:12:17;;;;;;;3.25;2.25;;;18.80;99.90;;;;;;5008749;28;20498;-78
2023/09/03 01:15:01;;;;;;;3.22;2.03;;;18.80;99.90;;;;;;5024875;28;20497;-79
2023/09/03 01:17:35;;;;;;;3.33;2.33;;;18.80;99.90;;;;;;5021434;28;20112;-78
2023/09/03 01:20:15;;;;;;;6.22;2.10;;;18.70;99.90;;;;;;5027851;28;20132;-78
2023/09/03 01:23:22;;;;;;;3.85;2.33;;;18.70;99.90;;;;;;5026379;28;20505;-78
2023/09/03 01:26:18;;;;;;;4.07;2.67;;;18.70;99.90;;;;;;5021178;28;20042;-78
2023/09/03 01:28:45;;;;;;;3.15;2.30;;;18.70;99.90;;;;;;5032289;28;20050;-78
2023/09/03 01:31:15;;;;;;;4.00;2.45;;;18.70;99.90;;;;;;5026653;28;20041;-79
2023/09/03 01:33:45;;;;;;;5.07;2.55;;;18.70;99.90;;;;;;5024906;28;20046;-78
2023/09/03 01:36:14;;;;;;;4.75;2.50;;;18.60;99.90;;;;;;5030128;28;20054;-78
2023/09/03 01:38:41;;;;;;;5.60;2.33;;;18.60;99.90;;;;;;5021184;28;20100;-79
2023/09/03 01:41:08;;;;;;;4.60;2.38;;;18.60;99.90;;;;;;5025216;28;20048;-79
2023/09/03 01:43:34;;;;;;;4.22;2.25;;;18.60;99.90;;;;;;5028871;28;20057;-79
2023/09/03 01:46:09;;;;;;;4.25;2.60;;;18.60;99.90;;;;;;5027868;28;20059;-78
2023/09/03 01:48:55;;;;;;;4.35;2.55;;;18.50;99.90;;;;;;5023198;28;20042;-78
2023/09/03 01:51:44;;;;;;;4.60;2.40;;;18.50;99.90;;;;;;5028682;28;20500;-79
2023/09/03 01:54:25;;;;;;;4.07;2.35;;;18.50;99.90;;;;;;5021387;28;20046;-79
2023/09/03 01:56:58;;;;;;;5.32;2.88;;;18.40;99.90;;;;;;5025839;28;20464;-79
2023/09/03 01:59:43;;;;;;;5.30;2.30;;;18.40;99.90;;;;;;5030881;28;20425;-79
2023/09/03 02:02:14;;;;;;;4.90;2.25;;;18.40;99.90;;;;;;5018779;28;20045;-79
2023/09/03 02:04:41;;;;;;;2.53;2.05;;;18.40;99.90;;;;;;5024394;28;20068;-79
2023/09/03 02:07:08;;;;;;;2.78;2.08;;;18.40;99.90;;;;;;5028645;28;20056;-78
2023/09/03 02:09:35;;;;;;;4.47;2.33;;;18.30;99.90;;;;;;5018138;28;20050;-79
2023/09/03 02:12:02;;;;;;;3.35;2.17;;;18.30;99.90;;;;;;5028609;28;20419;-78
2023/09/03 02:14:29;;;;;;;5.25;1.95;;;18.30;99.90;;;;;;5030293;28;20049;-78
2023/09/03 02:16:56;;;;;;;5.55;2.58;;;18.30;99.90;;;;;;5021511;28;20100;-79
2023/09/03 02:19:23;;;;;;;4.93;2.55;;;18.30;99.90;;;;;;5022505;28;20108;-78
2023/09/03 02:21:52;;;;;;;4.15;2.15;;;18.40;99.90;;;;;;5033206;28;20049;-78
2023/09/03 02:24:19;;;;;;;7.85;2.42;;;18.30;99.90;;;;;;5026798;28;20045;-78
2023/09/03 02:26:46;;;;;;;5.13;2.30;;;18.30;99.90;;;;;;5030138;28;20041;-78
2023/09/03 02:29:14;;;;;;;2.83;2.50;;;18.30;99.90;;;;;;5033901;28;20563;-78
2023/09/03 02:31:41;;;;;;;3.33;2.08;;;18.30;99.90;;;;;;5027129;28;20432;-79
2023/09/03 02:34:09;;;;;;;4.07;2.33;;;18.20;99.90;;;;;;5027713;28;20099;-79
2023/09/03 02:36:35;;;;;;;4.68;2.30;;;18.20;99.90;;;;;;5033342;28;20060;-79
2023/09/03 02:39:04;;;;;;;3.28;2.22;;;18.20;99.90;;;;;;5026553;28;20435;-79
2023/09/03 02:41:32;;;;;;;4.70;2.88;;;18.20;99.90;;;;;;5027695;28;20053;-78
2023/09/03 02:44:01;;;;;;;5.75;2.40;;;18.20;99.90;;;;;;5033035;28;20406;-79
2023/09/03 02:46:28;;;;;;;4.15;2.65;;;18.20;99.90;;;;;;5027952;28;20054;-78
2023/09/03 02:48:55;;;;;;;5.78;2.50;;;18.20;99.90;;;;;;5025837;28;20104;-79
2023/09/03 02:51:22;;;;;;;7.35;2.53;;;18.10;99.90;;;;;;5013833;28;20048;-78
2023/09/03 02:53:51;;;;;;;2.97;2.45;;;18.10;99.90;;;;;;5032842;28;20054;-78
2023/09/03 02:56:18;;;;;;;3.92;2.47;;;18.10;99.90;;;;;;5029047;28;20057;-78
2023/09/03 02:58:49;;;;;;;5.25;2.70;;;18.10;99.90;;;;;;5031687;28;20100;-78
2023/09/03 03:01:18;;;;;;;6.38;2.80;;;18.10;99.90;;;;;;5001652;28;20056;-78
2023/09/03 03:03:45;;;;;;;7.85;2.63;;;18.00;99.90;;;;;;5024789;28;20096;-78
2023/09/03 03:06:13;;;;;;;6.97;2.58;;;18.00;99.90;;;;;;5012887;28;20046;-78
2023/09/03 03:08:40;;;;;;;4.20;2.80;;;18.00;99.90;;;;;;5032469;28;20042;-78
2023/09/03 03:11:15;;;;;;;3.42;2.40;;;18.00;99.90;;;;;;5011814;28;20481;-79
2023/09/03 03:13:43;;;;;;;4.85;2.40;;;18.00;99.90;;;;;;5029913;28;20051;-78
2023/09/03 03:16:14;;;;;;;7.68;2.83;;;18.00;99.90;;;;;;5028286;28;20045;-79
2023/09/03 03:18:43;;;;;;;6.50;2.30;;;18.00;99.90;;;;;;5023744;28;20049;-79
2023/09/03 03:21:14;;;;;;;3.80;2.50;;;18.00;99.90;;;;;;5030889;28;20052;-78
2023/09/03 03:23:42;;;;;;;5.68;2.63;;;17.90;99.90;;;;;;5031489;28;20081;-79
2023/09/03 03:26:09;;;;;;;3.90;2.50;;;17.90;99.90;;;;;;5028348;28;20049;-79
2023/09/03 03:28:35;;;;;;;4.70;2.50;;;17.90;99.90;;;;;;5011511;28;20049;-79
2023/09/03 03:31:13;;;;;;;4.07;2.50;;;17.90;99.90;;;;;;5030616;28;20054;-79
2023/09/03 03:33:41;;;;;;;4.53;2.53;;;17.90;99.90;;;;;;5026237;28;20052;-79
2023/09/03 03:36:11;;;;;;;3.15;2.30;;;17.90;99.90;;;;;;5035936;28;20104;-78
2023/09/03 03:38:38;;;;;;;3.75;3.03;;;17.80;99.90;;;;;;5031899;28;20050;-79
2023/09/03 03:41:09;;;;;;;8.35;2.50;;;17.80;99.90;;;;;;5026955;28;20111;-78
2023/09/03 03:43:37;;;;;;;3.67;2.20;;;17.80;99.90;;;;;;5027810;28;20068;-79
2023/09/03 03:46:08;;;;;;;3.30;2.55;;;17.80;99.90;;;;;;5025782;28;20105;-79
2023/09/03 03:48:35;;;;;;;3.50;2.25;;;17.80;99.90;;;;;;5022422;28;20053;-79
2023/09/03 03:51:03;;;;;;;5.32;2.60;;;17.70;99.90;;;;;;5031036;28;20382;-79
2023/09/03 03:53:30;;;;;;;4.22;2.47;;;17.70;99.90;;;;;;5032289;28;20045;-79
2023/09/03 03:55:57;;;;;;;6.03;2.67;;;17.70;99.90;;;;;;5024841;28;20049;-78
2023/09/03 03:58:25;;;;;;;4.50;2.17;;;17.70;99.90;;;;;;5026625;28;20420;-79
2023/09/03 04:00:52;;;;;;;4.13;2.20;;;17.70;99.90;;;;;;5013484;28;20478;-79
2023/09/03 04:03:19;;;;;;;3.20;2.50;;;17.70;99.90;;;;;;5015259;28;20053;-79
2023/09/03 04:05:54;;;;;;;6.15;2.72;;;17.70;99.90;;;;;;5029643;28;20046;-79
2023/09/03 04:08:21;;;;;;;5.90;2.67;;;17.70;99.90;;;;;;5026764;28;20096;-79
2023/09/03 04:10:55;;;;;;;9.25;2.80;;;17.60;99.90;;;;;;5022922;28;20053;-79
2023/09/03 04:13:23;;;;;;;9.15;3.22;;;17.60;99.90;;;;;;5026443;28;20197;-79
2023/09/03 04:15:49;;;;;;;5.10;2.60;;;17.60;99.90;;;;;;5012945;28;20050;-77
2023/09/03 04:18:16;;;;;;;5.25;3.13;;;17.60;99.90;;;;;;5023252;28;20049;-79
2023/09/03 04:20:43;;;;;;;8.55;2.92;;;17.60;99.90;;;;;;5029836;28;20049;-79
2023/09/03 04:23:10;;;;;;;3.15;2.45;;;17.50;99.90;;;;;;5032894;28;20069;-79
2023/09/03 04:25:37;;;;;;;6.32;2.60;;;17.50;99.90;;;;;;5023483;28;20697;-78
2023/09/03 04:28:04;;;;;;;3.88;2.15;;;17.50;99.90;;;;;;5026142;28;20041;-79
2023/09/03 04:30:31;;;;;;;4.25;2.65;;;17.50;99.90;;;;;;5032711;28;20046;-79
2023/09/03 04:32:58;;;;;;;3.60;2.35;;;17.50;99.90;;;;;;5022426;28;20104;-78
2023/09/03 04:35:24;;;;;;;2.83;2.30;;;17.40;99.90;;;;;;5028364;28;20042;-78
2023/09/03 04:37:51;;;;;;;9.60;4.22;;;17.40;99.90;;;;;;5031118;28;20041;-78
2023/09/03 04:40:18;;;;;;;6.43;3.58;;;17.40;99.90;;;;;;5022359;28;20505;-78
2023/09/03 04:42:48;;;;;;;6.03;3.65;;;17.40;99.90;;;;;;5023560;28;20105;-79
2023/09/03 04:45:15;;;;;;;4.72;3.08;;;17.40;99.90;;;;;;5030198;28;20126;-78
2023/09/03 04:47:43;;;;;;;8.30;2.80;;;17.40;99.90;;;;;;5024507;28;20046;-79
2023/09/03 04:50:10;;;;;;;4.03;2.97;;;17.40;99.90;;;;;;5026524;28;20064;-78
2023/09/03 04:52:43;;;;;;;4.28;3.03;;;17.30;99.90;;;;;;5029406;28;20053;-79
2023/09/03 04:55:11;;;;;;;4.70;3.10;;;17.30;99.90;;;;;;5023614;28;20132;-79
2023/09/03 04:57:38;;;;;;;3.67;2.58;;;17.30;99.90;;;;;;5022838;28;20049;-78
2023/09/03 05:00:05;;;;;;;4.10;2.40;;;17.30;99.90;;;;;;5029809;28;20046;-79
2023/09/03 05:02:32;;;;;;;2.50;2.00;;;17.30;99.90;;;;;;5028536;28;20045;-78
2023/09/03 05:04:59;;;;;;;6.25;2.22;;;17.30;99.90;;;;;;5025533;28;20620;-78
2023/09/03 05:07:25;;;;;;;5.57;2.70;;;17.30;99.90;;;;;;5024916;28;20045;-78
2023/09/03 05:09:53;;;;;;;5.13;2.40;;;17.30;99.90;;;;;;5026334;28;20049;-78
2023/09/03 05:16:07;;;;;;;4.45;2.78;;;17.30;99.90;;;;;;5029418;28;20132;-79
2023/09/03 05:18:34;;;;;;;7.25;3.17;;;17.30;99.90;;;;;;5024867;28;20041;-79
2023/09/03 05:21:08;;;;;;;3.10;2.08;;;17.30;99.90;;;;;;5027519;28;20077;-78
2023/09/03 05:23:35;;;;;;;4.40;3.00;;;17.30;99.90;;;;;;5031311;28;20049;-79
2023/09/03 05:26:02;;;;;;;7.22;3.22;;;17.30;99.90;;;;;;5019709;28;20568;-79
2023/09/03 05:28:29;;;;;;;4.50;3.33;;;17.30;99.90;;;;;;5010742;28;20585;-77
2023/09/03 05:30:56;;;;;;;4.20;2.25;;;17.30;99.90;;;;;;5031195;28;20477;-78
2023/09/03 05:33:22;;;;;;;4.68;2.60;;;17.40;99.90;;;;;;5026220;28;20045;-77
2023/09/03 05:35:49;;;;;;;4.68;2.67;;;17.40;99.90;;;;;;5026156;28;20398;-79
2023/09/03 05:38:16;;;;;;;5.18;2.88;;;17.40;99.90;;;;;;5030210;28;20145;-79
2023/09/03 05:40:42;;;;;;;3.53;2.63;;;17.40;99.90;;;;;;5020550;28;20080;-79
2023/09/03 05:43:09;;;;;;;4.40;2.88;;;17.50;99.90;;;;;;5022858;28;20076;-77
2023/09/03 05:45:44;;;;;;;7.40;3.08;;;17.50;99.90;;;;;;5026273;28;20100;-79
2023/09/03 05:48:11;;;;;;;6.47;4.15;;;17.50;99.90;;;;;;5024955;28;20045;-78
2023/09/03 05:50:38;;;;;;;4.85;3.15;;;17.50;99.90;;;;;;5024483;28;20042;-78
2023/09/03 05:53:05;;;;;;;5.38;3.45;;;17.60;99.90;;;;;;5029682;28;20485;-78
2023/09/03 05:55:32;;;;;;;5.28;3.33;;;17.60;99.90;;;;;;5023209;28;20092;-78
2023/09/03 05:58:00;;;;;;;4.82;3.40;;;17.70;99.90;;;;;;5019500;28;20510;-78
2023/09/03 06:00:26;;;;;;;7.97;3.55;;;17.70;99.90;;;;;;5030130;28;20509;-78
2023/09/03 06:02:54;;;;;;;5.55;2.97;;;17.70;99.90;;;;;;5017381;28;20076;-78
2023/09/03 06:05:21;;;;;;;4.60;2.78;;;17.80;99.90;;;;;;5024123;28;20057;-79
2023/09/03 06:07:47;;;;;;;6.38;3.10;;;17.80;99.90;;;;;;5028639;28;20038;-79
2023/09/03 06:10:14;;;;;;;3.83;3.03;;;17.80;99.90;;;;;;5025835;28;20137;-79
2023/09/03 06:12:41;;;;;;;7.72;3.78;;;17.80;99.90;;;;;;5024000;28;20616;-79
2023/09/03 06:15:08;;;;;;;5.53;2.97;;;17.80;99.90;;;;;;5029295;28;20109;-78
2023/09/03 06:17:34;;;;;;;5.18;2.97;;;17.90;99.90;;;;;;5029427;28;20136;-79
2023/09/03 06:20:03;;;;;;;4.03;2.75;;;17.90;99.90;;;;;;5022077;28;20056;-79
2023/09/03 06:22:29;;;;;;;6.15;3.00;;;17.90;99.90;;;;;;5007318;28;20076;-78
2023/09/03 06:24:56;;;;;;;8.32;3.17;;;17.90;99.90;;;;;;5026329;28;20080;-78
2023/09/03 06:27:23;;;;;;;4.25;3.08;;;17.90;99.90;;;;;;5021869;28;20464;-79
2023/09/03 06:29:50;;;;;;;5.97;2.92;;;17.90;99.90;;;;;;5028498;28;20072;-78
2023/09/03 06:32:16;;;;;;;4.43;2.65;;;18.00;99.90;;;;;;5031116;28;20464;-79
2023/09/03 06:34:43;;;;;;;5.43;3.28;;;18.00;99.90;;;;;;5021863;28;20523;-79
2023/09/03 06:37:10;;;;;;;3.97;2.78;;;18.00;99.90;;;;;;5024100;28;20137;-79
2023/09/03 06:39:37;;;;;;;5.32;3.03;;;18.00;99.90;;;;;;5027798;28;20128;-78
2023/09/03 06:42:04;;;;;;;4.03;3.13;;;18.10;99.90;;;;;;5021667;28;20081;-78
2023/09/03 06:44:30;;;;;;;3.83;3.00;;;18.10;99.90;;;;;;5028131;28;20053;-79
2023/09/03 06:46:57;;;;;;;5.40;3.70;;;18.10;99.90;;;;;;5030135;28;20046;-79
2023/09/03 06:49:24;;;;;;;4.95;3.58;;;18.20;99.90;;;;;;5002726;28;20140;-79
2023/09/03 06:51:51;;;;;;;8.13;3.50;;;18.30;99.90;;;;;;5024039;28;20125;-79
2023/09/03 06:54:18;;;;;;;8.65;4.70;;;18.30;99.90;;;;;;5030916;28;20099;-79
2023/09/03 06:56:45;;;;;;;6.40;4.32;;;18.40;99.90;;;;;;5023827;28;20103;-79
2023/09/03 06:59:12;;;;;;;7.10;4.43;;;18.40;99.90;;;;;;5027360;28;20084;-79
2023/09/03 07:01:48;;;;;;;7.22;4.85;;;18.40;99.90;;;;;;5030800;28;20045;-79
2023/09/03 07:04:14;;;;;;;7.65;4.80;;;18.50;99.90;;;;;;5003737;28;20108;-80
2023/09/03 07:06:41;;;;;;;7.53;4.32;;;18.50;99.90;;;;;;5026564;28;20129;-79
2023/09/03 07:09:10;;;;;;;9.30;4.60;;;18.60;99.90;;;;;;5033556;28;20538;-79
2023/09/03 07:11:37;;;;;;;6.88;4.30;;;18.60;99.90;;;;;;5011664;28;20464;-77
2023/09/03 07:14:04;;;;;;;9.90;4.70;;;18.70;99.90;;;;;;5029438;28;20080;-79
2023/09/03 07:16:30;;;;;;;9.20;4.50;;;18.70;99.90;;;;;;5033926;28;20068;-79
2023/09/03 07:18:57;;;;;;;8.25;4.68;;;18.80;99.90;;;;;;5027046;28;20045;-79
2023/09/03 07:21:24;;;;;;;8.23;4.45;;;18.80;99.90;;;;;;5025996;28;20073;-79
2023/09/03 07:23:51;;;;;;;8.02;4.32;;;18.90;99.90;;;;;;5032394;28;20072;-79
2023/09/03 07:26:18;;;;;;;6.50;5.10;;;18.90;99.90;;;;;;5028610;28;20068;-79
2023/09/03 07:28:44;;;;;;;5.53;4.43;;;19.00;99.90;;;;;;5027726;28;20068;-79
2023/09/03 07:31:11;;;;;;;10.30;5.25;;;19.00;99.90;;;;;;5031681;28;20138;-79
2023/09/03 07:33:41;;;;;;;8.50;4.90;;;19.10;99.90;;;;;;5027057;28;20069;-79
2023/09/03 07:36:11;;;;;;;7.55;5.25;;;19.10;99.90;;;;;;5024495;28;20042;-79
2023/09/03 07:38:38;;;;;;;5.63;4.50;;;19.20;99.90;;;;;;5030924;28;20084;-78
2023/09/03 07:41:05;;;;;;;13.57;5.00;;;19.30;99.90;;;;;;5024959;28;20100;-79
2023/09/03 07:43:33;;;;;;;7.63;5.35;;;19.30;99.90;;;;;;5026660;28;20069;-79
2023/09/03 07:46:00;;;;;;;6.70;5.07;;;19.40;99.90;;;;;;5031319;28;20091;-79
2023/09/03 07:48:27;;;;;;;8.98;5.22;;;19.40;99.90;;;;;;5027687;28;20422;-79
2023/09/03 07:50:53;;;;;;;8.45;4.93;;;19.50;99.90;;;;;;5023652;28;20069;-79
2023/09/03 07:53:20;;;;;;;8.40;5.20;;;19.60;99.90;;;;;;5028754;28;20103;-79
2023/09/03 07:55:47;;;;;;;8.77;5.20;;;19.60;99.90;;;;;;5032832;28;20068;-79
2023/09/03 07:58:14;;;;;;;6.72;4.95;;;19.70;99.90;;;;;;5025899;28;20046;-79
2023/09/03 08:00:41;;;;;;;8.48;5.00;;;19.70;99.90;;;;;;5029948;28;20489;-79
2023/09/03 08:03:07;;;;;;;10.25;5.20;;;19.80;99.90;;;;;;5028878;28;20049;-79
2023/09/03 08:05:34;;;;;;;7.53;4.85;;;19.90;99.90;;;;;;5020786;28;20045;-78
2023/09/03 08:08:01;;;;;;;6.13;4.85;;;19.90;99.90;;;;;;5031476;28;20038;-79
2023/09/03 08:10:28;;;;;;;7.18;4.45;;;20.00;99.90;;;;;;5033817;28;20565;-79
2023/09/03 08:12:55;;;;;;;6.13;4.22;;;20.00;99.90;;;;;;5025184;28;20081;-79
2023/09/03 08:15:21;;;;;;;9.48;4.43;;;20.10;99.90;;;;;;5008992;28;20108;-78
2023/09/03 08:18:08;;;;;;;5.50;4.22;;;20.20;99.90;;;;;;5028958;28;20052;-79
2023/09/03 08:20:35;;;;;;;10.23;5.07;;;20.30;99.90;;;;;;5022184;28;20137;-79
2023/09/03 08:23:01;;;;;;;6.60;4.68;;;20.30;99.90;;;;;;5030402;28;20049;-78
2023/09/03 08:25:31;;;;;;;8.48;5.20;;;20.40;99.90;;;;;;5032269;28;20114;-79
2023/09/03 08:27:57;;;;;;;7.25;4.38;;;20.40;99.90;;;;;;5023516;28;20042;-78
2023/09/03 08:30:24;;;;;;;6.15;4.35;;;20.40;99.90;;;;;;5027629;28;20046;-79
2023/09/03 08:32:51;;;;;;;6.90;4.68;;;20.50;99.90;;;;;;5033121;28;20096;-79
2023/09/03 08:35:18;;;;;;;6.65;4.53;;;20.60;99.90;;;;;;5021186;28;20138;-79
2023/09/03 08:37:44;;;;;;;11.07;4.63;;;20.70;99.90;;;;;;5030256;28;20590;-79
2023/09/03 08:40:11;;;;;;;14.07;3.95;;;20.70;99.90;;;;;;5014836;28;20054;-79
2023/09/03 08:42:40;;;;;;;7.93;3.95;;;20.80;99.90;;;;;;5019817;28;20049;-79
2023/09/03 08:45:11;;;;;;;8.60;4.03;;;20.90;99.90;;;;;;5026724;28;20048;-79
2023/09/03 08:47:39;;;;;;;;;;;21.00;99.90;;;;;;5031830;28;20050;-79
2023/09/03 08:50:09;;;;;;;6.07;4.25;;;21.00;99.90;;;;;;5023026;28;20013;-79
2023/09/03 08:52:38;;;;;;;10.10;4.43;;;21.10;99.90;;;;;;5030083;28;20119;-78
2023/09/03 08:55:06;;;;;;;5.97;4.07;;;21.10;99.90;;;;;;5014336;28;20125;-79
2023/09/03 08:57:34;;;;;;;7.80;3.75;;;21.20;99.90;;;;;;5023362;28;20493;-79
2023/09/03 09:00:06;;;;;;;8.57;3.47;;;21.20;99.90;;;;;;5024850;28;20061;-79
2023/09/03 09:02:36;;;;;;;4.60;3.78;;;21.20;99.90;;;;;;5014642;28;20456;-79
2023/09/03 09:05:06;;;;;;;5.50;3.40;;;21.30;99.90;;;;;;5025332;28;20096;-79
2023/09/03 09:07:33;;;;;;;8.53;4.47;;;21.30;99.90;;;;;;5028618;28;20042;-79
2023/09/03 09:10:10;;;;;;;5.00;3.75;;;21.40;99.90;;;;;;5031215;28;20042;-79
2023/09/03 09:12:48;;;;;;;7.20;3.75;;;21.40;99.90;;;;;;5021536;28;20132;-79
2023/09/03 09:15:15;;;;;;;5.38;3.40;;;21.40;99.90;;;;;;5025127;28;20112;-79
2023/09/03 09:17:43;;;;;;;8.02;4.10;;;21.40;99.90;;;;;;5031060;28;20045;-79
2023/09/03 09:20:15;;;;;;;6.07;3.70;;;21.50;99.90;;;;;;5021029;28;20621;-79
2023/09/03 09:22:46;;;;;;;5.47;3.85;;;21.50;99.90;;;;;;5026220;28;20480;-79
2023/09/03 09:25:21;;;;;;;7.32;3.60;;;21.60;99.90;;;;;;5027603;28;20128;-79
2023/09/03 09:27:49;;;;;;;6.88;3.92;;;21.70;99.90;;;;;;4998206;28;20525;-79
2023/09/03 09:30:19;;;;;;;4.43;3.38;;;21.70;99.90;;;;;;5007591;28;20089;-79
2023/09/03 09:32:46;;;;;;;7.40;4.22;;;21.80;99.90;;;;;;4997291;28;20076;-79
2023/09/03 09:35:24;;;;;;;4.97;3.53;;;21.80;99.90;;;;;;5027359;28;20042;-79
2023/09/03 09:37:50;;;;;;;6.90;4.00;;;21.90;99.90;;;;;;5025056;28;20045;-79
2023/09/03 09:40:32;;;;;;;8.93;3.95;;;21.90;99.90;;;;;;5031115;28;20096;-78
2023/09/03 09:43:01;;;;;;;6.30;3.63;;;22.00;99.90;;;;;;5016999;28;20046;-79
2023/09/03 09:45:28;;;;;;;6.70;3.50;;;22.00;99.90;;;;;;5024587;28;20100;-79
2023/09/03 09:48:08;;;;;;;5.10;3.65;;;22.10;99.90;;;;;;5027413;28;20041;-79
2023/09/03 09:50:43;;;;;;;4.95;3.53;;;22.10;99.90;;;;;;5025118;28;20399;-79
2023/09/03 09:53:24;;;;;;;8.90;4.20;;;22.20;99.90;;;;;;5024109;28;20042;-78
2023/09/03 09:55:58;;;;;;;7.40;3.55;;;22.30;99.90;;;;;;5030247;28;20052;-79
2023/09/03 09:58:36;;;;;;;5.13;4.03;;;22.30;99.90;;;;;;4997959;28;20430;-79
2023/09/03 10:01:03;;;;;;;5.82;3.53;;;22.40;99.90;;;;;;5027942;28;20041;-79
2023/09/03 10:03:44;;;;;;;6.97;4.57;;;22.40;99.90;;;;;;5032278;28;20050;-79
2023/09/03 10:06:16;;;;;;;8.55;3.78;;;22.50;99.90;;;;;;5020406;28;20490;-80
2023/09/03 10:08:45;;;;;;;6.15;3.70;;;22.50;99.90;;;;;;5009131;28;20042;-80
2023/09/03 10:11:16;;;;;;;5.80;4.20;;;22.60;99.90;;;;;;5013518;28;20061;-79
2023/09/03 10:13:44;;;;;;;3.90;3.50;;;22.70;99.90;;;;;;5020058;28;20045;-79
2023/09/03 10:16:11;;;;;;;5.50;3.30;;;22.80;99.90;;;;;;5027897;28;20109;-79
2023/09/03 10:18:43;;;;;;;3.17;2.88;;;22.90;99.90;;;;;;5032070;28;20442;-79
2023/09/03 10:21:11;;;;;;;5.53;3.35;;;23.00;99.90;;;;;;5019631;28;20493;-79
2023/09/03 10:23:47;;;;;;;6.75;3.25;;;23.10;99.90;;;;;;5025718;28;20109;-79
2023/09/03 10:26:28;;;;;;;4.22;3.20;;;23.10;99.90;;;;;;5027221;28;20111;-79
2023/09/03 10:29:01;;;;;;;3.70;2.88;;;23.20;99.90;;;;;;5016927;28;20141;-79
2023/09/03 10:31:30;;;;;;;6.82;3.60;;;23.30;99.90;;;;;;5029596;28;20050;-79
2023/09/03 10:33:58;;;;;;;4.72;2.83;;;23.40;99.90;;;;;;5030049;28;20500;-79
2023/09/03 10:36:24;;;;;;;11.13;2.85;;;23.40;99.90;;;;;;5024610;28;20493;-78
2023/09/03 10:38:51;;;;;;;4.45;3.63;;;23.40;99.90;;;;;;5027629;28;20050;-79
2023/09/03 10:41:21;;;;;;;5.05;3.38;;;23.50;99.90;;;;;;5033752;28;20496;-79
2023/09/03 10:43:51;;;;;;;3.28;2.80;;;23.50;99.90;;;;;;5025216;28;20045;-77
2023/09/03 10:46:19;;;;;;;6.35;2.95;;;23.60;99.90;;;;;;5029156;28;20079;-79
2023/09/03 10:48:54;;;;;;;3.90;2.55;;;23.60;99.90;;;;;;5035368;28;20042;-80
2023/09/03 10:51:30;;;;;;;4.43;2.90;;;23.60;99.90;;;;;;5024751;28;20489;-79
2023/09/03 10:54:20;;;;;;;3.97;3.00;;;23.70;99.90;;;;;;5029039;28;20077;-80
2023/09/03 10:57:16;;;;;;;4.20;2.80;;;23.70;99.90;;;;;;5015859;28;20038;-78
2023/09/03 10:59:58;;;;;;;5.25;3.10;;;23.70;99.90;;;;;;5007797;28;20089;-79
2023/09/03 11:02:27;;;;;;;4.03;2.72;;;23.80;99.90;;;;;;5032151;28;20081;-79
2023/09/03 11:05:29;;;;;;;6.00;3.72;;;23.90;99.90;;;;;;5032843;28;20076;-79
2023/09/03 11:08:31;;;;;;;3.92;2.95;;;23.90;99.90;;;;;;4926314;29;20134;-79
2023/09/03 11:10:59;;;;;;;6.43;3.47;;;23.90;99.90;;;;;;5016471;28;20041;-79
2023/09/03 11:13:27;;;;;;;4.90;2.80;;;23.90;99.90;;;;;;5027157;28;20049;-79
2023/09/03 11:16:05;;;;;;;6.47;2.60;;;24.00;99.90;;;;;;5027429;28;20041;-79
2023/09/03 11:18:32;;;;;;;4.78;3.33;;;24.00;99.90;;;;;;5033634;28;20347;-79
2023/09/03 11:21:01;;;;;;;4.65;3.05;;;24.10;99.90;;;;;;5026717;28;20494;-79
2023/09/03 11:23:29;;;;;;;4.38;3.05;;;24.10;99.90;;;;;;5026820;28;20073;-79
2023/09/03 11:26:03;;;;;;;5.00;3.30;;;24.10;99.90;;;;;;5033726;28;20420;-79
2023/09/03 11:28:36;;;;;;;5.60;2.72;;;24.20;99.90;;;;;;5029526;28;20128;-79
2023/09/03 11:31:03;;;;;;;6.63;2.83;;;24.20;99.90;;;;;;5028732;28;20073;-79
2023/09/03 11:33:30;;;;;;;4.13;2.95;;;24.30;99.90;;;;;;5033053;28;20053;-78
2023/09/03 11:35:59;;;;;;;3.95;2.63;;;24.30;99.90;;;;;;5025800;28;20133;-79
2023/09/03 11:38:26;;;;;;;6.35;2.70;;;24.40;99.90;;;;;;5025733;28;20056;-79
2023/09/03 11:40:57;;;;;;;5.70;3.15;;;24.40;99.90;;;;;;5032706;28;20045;-79
2023/09/03 11:43:25;;;;;;;3.92;2.30;;;24.40;99.90;;;;;;5022889;28;20074;-79
2023/09/03 11:45:52;;;;;;;2.70;2.05;;;24.50;99.90;;;;;;5025083;28;20052;-79
2023/09/03 11:48:26;;;;;;;7.10;2.00;;;24.50;99.90;;;;;;5031623;28;20060;-79
2023/09/03 11:50:52;;;;;;;6.38;2.10;;;24.60;99.90;;;;;;5022397;28;20065;-79
2023/09/03 11:53:20;;;;;;;2.45;1.90;;;24.60;99.90;;;;;;5007390;28;20045;-79
2023/09/03 11:55:52;;;;;;;2.10;1.80;;;24.60;99.90;;;;;;5031673;28;20057;-79
2023/09/03 11:58:22;;;;;;;2.38;1.90;;;24.70;99.90;;;;;;5028875;28;20563;-79
2023/09/03 12:00:49;;;;;;;4.63;2.08;;;24.70;99.90;;;;;;5020452;28;20064;-79
2023/09/03 12:03:16;;;;;;;2.80;1.90;;;24.70;99.90;;;;;;5031641;28;20045;-79
2023/09/03 12:05:44;;;;;;;3.92;1.90;;;24.70;99.90;;;;;;5032775;28;20046;-79
2023/09/03 12:08:10;;;;;;;2.65;1.70;;;24.60;99.90;;;;;;5028927;28;20088;-79
2023/09/03 12:10:37;;;;;;;2.40;1.85;;;24.60;99.90;;;;;;5037049;28;20085;-79
2023/09/03 12:13:08;;;;;;;2.95;1.90;;;24.60;99.90;;;;;;5033135;28;20103;-79
2023/09/03 12:15:34;;;;;;;2.70;2.10;;;24.50;99.90;;;;;;5030802;28;20599;-79
2023/09/03 12:18:09;;;;;;;4.28;2.10;;;24.50;99.90;;;;;;5032195;28;20124;-80
2023/09/03 12:20:38;;;;;;;5.28;1.98;;;24.60;99.90;;;;;;5025715;28;20129;-77
2023/09/03 12:23:18;;;;;;;3.42;1.92;;;24.60;99.90;;;;;;5020693;28;20042;-78
2023/09/03 12:25:46;;;;;;;4.60;2.08;;;24.60;99.90;;;;;;5027905;28;20120;-77
2023/09/03 12:28:13;;;;;;;3.70;2.40;;;24.70;99.90;;;;;;5024076;28;20053;-77
2023/09/03 12:30:56;;;;;;;2.92;2.15;;;24.70;99.90;;;;;;5022604;28;20137;-79
2023/09/03 12:33:42;;;;;;;3.85;2.30;;;24.70;99.90;;;;;;5024217;28;20084;-78
2023/09/03 12:36:17;;;;;;;7.90;2.40;;;24.70;99.90;;;;;;5022030;28;20046;-78
2023/09/03 12:38:58;;;;;;;3.45;2.67;;;24.70;99.90;;;;;;5024731;28;20049;-78
2023/09/03 12:41:30;;;;;;;4.63;2.20;;;24.80;99.90;;;;;;5027913;28;20045;-78
2023/09/03 12:44:05;;;;;;;5.80;2.40;;;24.70;99.90;;;;;;5019531;28;20508;-77
2023/09/03 12:46:33;;;;;;;5.22;1.80;;;24.80;99.90;;;;;;5022650;28;20496;-79
2023/09/03 12:49:00;;;;;;;2.75;1.92;;;24.90;99.90;;;;;;5015391;28;20042;-80
2023/09/03 12:51:27;;;;;;;4.10;1.90;;;25.00;99.90;;;;;;5019572;28;20089;-77
2023/09/03 12:53:54;;;;;;;3.15;1.90;;;25.00;99.90;;;;;;5024751;28;20080;-76
2023/09/03 12:56:20;;;;;;;3.50;2.72;;;25.10;99.90;;;;;;5027894;28;20056;-77
2023/09/03 12:58:47;;;;;;;7.45;1.92;;;25.10;99.90;;;;;;5024935;28;20129;-77
2023/09/03 13:01:14;;;;;;;3.28;2.03;;;25.20;99.90;;;;;;5021235;28;20172;-78
2023/09/03 13:03:41;;;;;;;3.50;1.83;;;25.20;99.90;;;;;;5025841;28;20049;-79